aviador You're here:

CYKJ Decoded Metar

KEY LAKE in SK, CANADA
Report Time2018-04-26 12:00:00
UTC Time2018-04-26 13:11:04
Flight Rules Old
Wind250° at 07 kt
W.Decomp.*RWY 21: 6.1 kt HW 3.5 kt RCW
W.Rank250° ranks 17
Current wind is above 250° avg. (6.2)
Visibility9999 m
Phenomena:N/A
Clouds:N/A
Expected CloudBase > 2,400 ft AGL from Temp-Dew spread
CeilingNone
Temp03°C (ISA -9)
Dew Point-3°C (65% RH)
AAT-1.9°C
QNH1006 hPa
Density Alt932 ft
Elevation1,670 ft
Report Wrong Elevation
Raw Report
CYKJ 261200Z AUTO 25007KT 9SM CLR 03/M03 A2970 RMK SLP081=

Extra information for CYKJ:More info

Metar Taf Metar & Taf Last 4 Metars F.Rules Stats Wind Profile Meteogram Temp Stats Airport Information Weather charts Add Link Nearby VenuesMetar ALERT Operation Metar Decoded Social comments